Time;durP1;ratioP1;P1;durP2;ratioP2;P2;SDS_P1;SDS_P2;PMS_P1;PMS_P2;Temp;Humidity;BMP_temperature;BMP_pressure;BME280_temperature;BME280_humidity;BME280_pressure;Samples;Min_cycle;Max_cycle;Signal;HPM_P1;HPM_P2
2023/11/04 00:01:53;;;;;;;0.50;0.30;;;;;;;14.99;100.00;96138.50;5054905;28;20039;-76
2023/11/04 00:04:18;;;;;;;0.30;0.30;;;;;;;14.98;100.00;96131.47;5073750;28;20032;-77
2023/11/04 00:06:44;;;;;;;0.15;0.15;;;;;;;14.98;100.00;96107.22;5091675;28;20032;-76
2023/11/04 00:09:10;;;;;;;5.30;1.23;;;;;;;15.01;100.00;96104.22;5074927;28;20420;-77
2023/11/04 00:11:35;;;;;;;0.22;0.22;;;;;;;14.98;100.00;96099.16;5061760;28;20487;-77
2023/11/04 00:14:01;;;;;;;0.93;0.52;;;;;;;14.94;100.00;96089.69;5086273;28;20050;-77
2023/11/04 00:16:27;;;;;;;0.22;0.22;;;;;;;14.90;100.00;96078.38;5057274;28;20047;-77
2023/11/04 00:18:52;;;;;;;0.10;0.10;;;;;;;14.92;100.00;96078.22;5084857;28;20039;-76
2023/11/04 00:21:18;;;;;;;1.13;0.60;;;;;;;14.90;100.00;96070.31;5071075;28;20036;-76
2023/11/04 00:23:44;;;;;;;0.30;0.30;;;;;;;14.91;100.00;96076.53;5056977;28;20025;-77
2023/11/04 00:26:10;;;;;;;0.73;0.40;;;;;;;14.94;100.00;96084.28;5091573;28;20028;-76
2023/11/04 00:28:36;;;;;;;0.93;0.52;;;;;;;14.97;100.00;96079.44;5091164;28;20102;-78
2023/11/04 00:31:01;;;;;;;1.02;0.93;;;;;;;15.01;100.00;96061.13;5071569;28;20020;-77
2023/11/04 00:33:27;;;;;;;2.55;0.55;;;;;;;14.93;100.00;96044.91;5083990;28;20098;-78
2023/11/04 00:35:52;;;;;;;0.30;0.30;;;;;;;14.91;100.00;96038.84;5065895;28;20038;-77
2023/11/04 00:38:19;;;;;;;1.10;0.65;;;;;;;14.96;100.00;96031.13;5061705;28;20561;-77
2023/11/04 00:40:44;;;;;;;0.38;0.32;;;;;;;14.91;100.00;96026.22;5087081;28;20407;-76
2023/11/04 00:43:10;;;;;;;9.95;0.60;;;;;;;14.89;100.00;96035.47;5088142;28;20027;-78
2023/11/04 00:45:36;;;;;;;0.43;0.43;;;;;;;14.83;100.00;96030.69;5073338;28;20025;-78
2023/11/04 00:48:01;;;;;;;0.90;0.43;;;;;;;14.77;100.00;96028.63;5073308;28;20111;-77
2023/11/04 00:50:27;;;;;;;0.28;0.28;;;;;;;14.84;100.00;96035.09;5062306;28;20032;-77
2023/11/04 00:52:53;;;;;;;0.50;0.50;;;;;;;14.74;100.00;96028.94;5053776;28;20396;-76
2023/11/04 00:55:19;;;;;;;0.40;0.40;;;;;;;14.72;100.00;96039.03;5077433;28;20028;-77
2023/11/04 00:57:45;;;;;;;1.15;0.50;;;;;;;14.75;100.00;96061.09;5077698;28;20113;-76
2023/11/04 01:00:11;;;;;;;0.52;0.17;;;;;;;14.56;100.00;96066.66;5053748;28;20028;-77
2023/11/04 01:02:37;;;;;;;0.10;0.10;;;;;;;14.57;100.00;96036.94;5078675;28;20020;-78
2023/11/04 01:05:03;;;;;;;0.73;0.57;;;;;;;14.57;100.00;96014.56;5057718;28;20039;-77
2023/11/04 01:07:29;;;;;;;0.95;0.32;;;;;;;14.57;100.00;96031.56;5087988;28;20016;-76
2023/11/04 01:09:54;;;;;;;1.48;0.88;;;;;;;14.54;100.00;96031.00;5083287;28;20129;-76
2023/11/04 01:12:20;;;;;;;0.75;0.47;;;;;;;14.51;100.00;96026.78;5070096;28;20032;-77
2023/11/04 01:14:46;;;;;;;0.25;0.25;;;;;;;14.47;100.00;96003.88;5074161;28;20428;-77
2023/11/04 01:17:12;;;;;;;0.68;0.68;;;;;;;14.43;100.00;95997.13;5066756;28;20028;-77
2023/11/04 01:19:38;;;;;;;1.17;0.73;;;;;;;14.41;100.00;96009.88;5073002;28;20063;-76
2023/11/04 01:22:04;;;;;;;0.20;0.20;;;;;;;14.38;100.00;96012.91;5072441;28;20074;-77
2023/11/04 01:24:30;;;;;;;0.20;0.20;;;;;;;14.37;100.00;96011.19;5073931;28;20479;-77
2023/11/04 01:26:55;;;;;;;1.58;1.02;;;;;;;14.31;100.00;95998.34;5073024;28;20483;-77
2023/11/04 01:29:21;;;;;;;0.32;0.32;;;;;;;14.35;100.00;95996.22;5084242;28;20450;-77
2023/11/04 01:31:48;;;;;;;1.10;0.90;;;;;;;14.35;100.00;95983.63;5062416;28;20537;-78
2023/11/04 01:34:14;;;;;;;0.10;0.10;;;;;;;14.31;100.00;95982.19;5065086;28;20036;-76
2023/11/04 01:36:39;;;;;;;0.60;0.60;;;;;;;14.26;100.00;95976.47;5059294;28;20032;-77
2023/11/04 01:39:07;;;;;;;4.13;0.90;;;;;;;14.30;100.00;95983.22;5086356;28;20031;-76
2023/11/04 01:41:33;;;;;;;1.38;0.30;;;;;;;14.32;100.00;95972.28;5069624;28;20021;-77
2023/11/04 01:43:58;;;;;;;0.50;0.50;;;;;;;14.34;100.00;95976.53;5063395;28;20372;-78
2023/11/04 01:46:25;;;;;;;1.48;0.82;;;;;;;14.42;100.00;95984.69;5064255;28;20020;-78
2023/11/04 01:48:50;;;;;;;0.55;0.30;;;;;;;14.38;100.00;95991.38;5061035;28;20032;-77
2023/11/04 01:51:16;;;;;;;0.52;0.52;;;;;;;14.43;100.00;95997.13;5065773;28;20467;-76
2023/11/04 01:53:46;;;;;;;1.48;0.22;;;;;;;14.43;100.00;95988.19;5062155;28;20036;-76
2023/11/04 01:56:13;;;;;;;0.85;0.43;;;;;;;14.41;100.00;95980.31;5063839;28;20024;-77
2023/11/04 01:58:41;;;;;;;0.38;0.38;;;;;;;14.36;100.00;95974.56;5055608;28;20035;-77
2023/11/04 02:01:06;;;;;;;0.55;0.55;;;;;;;14.34;100.00;95981.91;5069076;28;20029;-77
2023/11/04 02:03:32;;;;;;;1.50;0.60;;;;;;;14.36;100.00;95987.16;5059210;28;20426;-77
2023/11/04 02:05:58;;;;;;;0.30;0.30;;;;;;;14.36;100.00;95987.16;5079548;28;20032;-77
2023/11/04 02:08:23;;;;;;;2.08;0.68;;;;;;;14.41;100.00;96000.97;5052598;28;20484;-77
2023/11/04 02:10:49;;;;;;;1.00;0.57;;;;;;;14.40;100.00;96010.03;5052863;28;20399;-78
2023/11/04 02:13:14;;;;;;;0.25;0.22;;;;;;;14.45;100.00;96032.81;5063440;28;20525;-78
2023/11/04 02:15:40;;;;;;;1.80;0.52;;;;;;;14.51;100.00;96055.53;5065251;28;20059;-79
2023/11/04 02:18:07;;;;;;;0.30;0.30;;;;;;;14.54;100.00;96068.69;5064500;28;20064;-78
2023/11/04 02:20:34;;;;;;;2.08;0.52;;;;;;;14.53;100.00;96078.59;5071851;28;20076;-78
2023/11/04 02:23:02;;;;;;;0.95;0.38;;;;;;;14.58;100.00;96097.78;5087054;28;20138;-78
2023/11/04 02:25:34;;;;;;;1.90;0.68;;;;;;;14.63;100.00;96122.41;5072407;28;20031;-77
2023/11/04 02:28:00;;;;;;;1.95;0.95;;;;;;;14.65;100.00;96114.16;5089226;28;20032;-78
2023/11/04 02:30:26;;;;;;;0.60;0.50;;;;;;;14.69;100.00;96120.09;5088324;28;20089;-77
2023/11/04 02:32:52;;;;;;;0.20;0.20;;;;;;;14.68;100.00;96127.31;5085974;28;20028;-78
2023/11/04 02:35:19;;;;;;;0.28;0.28;;;;;;;14.68;100.00;96121.09;5063447;28;20024;-77
2023/11/04 02:37:45;;;;;;;0.95;0.43;;;;;;;14.70;100.00;96143.31;5080380;28;20047;-78
2023/11/04 02:40:11;;;;;;;0.98;0.57;;;;;;;14.78;100.00;96136.16;5076237;28;20498;-77
2023/11/04 02:42:38;;;;;;;0.88;0.38;;;;;;;14.77;100.00;96130.91;5087705;28;20032;-75
2023/11/04 02:45:04;;;;;;;0.40;0.40;;;;;;;14.74;100.00;96131.22;5069331;28;20067;-77
2023/11/04 02:47:30;;;;;;;0.40;0.15;;;;;;;14.72;100.00;96119.78;5061043;28;20556;-78
2023/11/04 02:49:56;;;;;;;20.35;0.95;;;;;;;14.67;100.00;96124.81;5076143;28;20028;-77
2023/11/04 02:52:22;;;;;;;1.73;0.75;;;;;;;14.64;100.00;96142.09;5093077;28;20411;-78
2023/11/04 02:54:47;;;;;;;0.45;0.38;;;;;;;14.63;100.00;96143.94;5086093;28;20066;-77
2023/11/04 02:57:13;;;;;;;1.65;1.17;;;;;;;14.67;100.00;96117.56;5055895;28;20032;-76
2023/11/04 02:59:38;;;;;;;0.63;0.43;;;;;;;14.68;100.00;96110.31;5061246;28;20119;-78
2023/11/04 03:02:06;;;;;;;2.15;1.30;;;;;;;14.66;100.00;96110.50;5072566;28;20162;-78
2023/11/04 03:04:34;;;;;;;0.52;0.30;;;;;;;14.72;100.00;96095.56;5074700;28;20024;-77
2023/11/04 03:07:00;;;;;;;0.20;0.20;;;;;;;14.70;100.00;96073.34;5092971;28;20412;-77
2023/11/04 03:09:25;;;;;;;3.08;0.82;;;;;;;14.69;100.00;96077.88;5053915;28;20025;-77
2023/11/04 03:11:52;;;;;;;0.40;0.38;;;;;;;14.67;100.00;96079.91;5060765;28;20028;-76
2023/11/04 03:14:18;;;;;;;0.17;0.17;;;;;;;14.68;100.00;96075.34;5069170;28;20040;-78
2023/11/04 03:16:43;;;;;;;3.65;0.90;;;;;;;14.69;100.00;96066.28;5090055;28;20016;-76
2023/11/04 03:19:09;;;;;;;3.33;1.75;;;;;;;14.65;100.00;96060.34;5058672;28;20040;-77
2023/11/04 03:21:34;;;;;;;0.45;0.45;;;;;;;14.59;100.00;96043.00;5060159;28;20036;-77
2023/11/04 03:24:00;;;;;;;9.75;4.40;;;;;;;14.59;100.00;96036.75;5091452;28;20026;-77
2023/11/04 03:26:25;;;;;;;0.30;0.30;;;;;;;14.63;100.00;96032.75;5086886;28;20142;-77
2023/11/04 03:28:51;;;;;;;0.82;0.28;;;;;;;14.58;100.00;96027.84;5084097;28;20032;-76
2023/11/04 03:31:17;;;;;;;9.40;5.40;;;;;;;14.53;100.00;96032.84;5087870;28;20024;-76
2023/11/04 03:33:42;;;;;;;0.73;0.60;;;;;;;14.57;100.00;96036.94;5085725;28;20020;-77
2023/11/04 03:36:11;;;;;;;0.43;0.20;;;;;;;14.54;100.00;96031.00;5074822;28;20054;-77
2023/11/04 03:38:39;;;;;;;0.13;0.13;;;;;;;14.48;100.00;96010.97;5055591;28;20047;-76
2023/11/04 03:41:05;;;;;;;0.30;0.30;;;;;;;14.47;100.00;96006.56;5080013;28;20410;-77
2023/11/04 03:43:30;;;;;;;1.75;0.45;;;;;;;14.47;100.00;95994.97;5060955;28;20105;-77
2023/11/04 03:45:56;;;;;;;0.93;0.73;;;;;;;14.46;100.00;95980.66;5072873;28;20032;-77
2023/11/04 03:48:23;;;;;;;0.30;0.30;;;;;;;14.48;100.00;95950.94;5083964;28;20035;-77
2023/11/04 03:50:49;;;;;;;0.20;0.20;;;;;;;14.43;100.00;95942.47;5055385;28;20113;-77
2023/11/04 03:53:15;;;;;;;0.10;0.10;;;;;;;14.43;100.00;95969.38;5089120;28;20028;-77
2023/11/04 03:55:41;;;;;;;0.25;0.22;;;;;;;14.39;100.00;95952.72;5079442;28;20124;-77
2023/11/04 03:58:06;;;;;;;2.13;0.93;;;;;;;14.36;100.00;95936.91;5059722;28;20503;-77
2023/11/04 04:00:33;;;;;;;0.32;0.30;;;;;;;14.32;100.00;95938.16;5087370;28;20035;-77
2023/11/04 04:02:59;;;;;;;0.50;0.50;;;;;;;14.31;100.00;95938.31;5061333;28;20062;-76
2023/11/04 04:05:24;;;;;;;0.90;0.60;;;;;;;14.32;100.00;95935.47;5091959;28;20486;-75
2023/11/04 04:07:50;;;;;;;3.92;0.70;;;;;;;14.35;100.00;95929.81;5092001;28;20039;-78
2023/11/04 04:10:16;;;;;;;0.55;0.43;;;;;;;14.37;100.00;95922.44;5092591;28;20024;-77
2023/11/04 04:12:42;;;;;;;0.65;0.57;;;;;;;14.42;100.00;95898.59;5068006;28;20040;-78
2023/11/04 04:15:08;;;;;;;0.65;0.32;;;;;;;14.38;100.00;95883.78;5087140;28;20034;-78
2023/11/04 04:17:33;;;;;;;0.20;0.20;;;;;;;14.39;100.00;95898.06;5074674;28;20384;-78
2023/11/04 04:19:59;;;;;;;0.30;0.10;;;;;;;14.37;100.00;95898.22;5091154;28;20051;-78
2023/11/04 04:22:25;;;;;;;0.43;0.30;;;;;;;14.43;100.00;95910.19;5081951;28;20035;-76
2023/11/04 04:24:50;;;;;;;0.10;0.10;;;;;;;14.44;100.00;95918.13;5079517;28;20531;-78
2023/11/04 04:27:16;;;;;;;0.30;0.30;;;;;;;14.51;100.00;95921.88;5087849;28;20529;-78
2023/11/04 04:29:41;;;;;;;1.00;0.60;;;;;;;14.54;100.00;95905.41;5074589;28;20110;-79
2023/11/04 04:32:07;;;;;;;0.35;0.35;;;;;;;14.52;100.00;95893.94;5059282;28;20024;-78
2023/11/04 04:34:33;;;;;;;0.32;0.32;;;;;;;14.59;100.00;95895.00;5073752;28;20025;-79
2023/11/04 04:36:58;;;;;;;0.10;0.10;;;;;;;14.62;100.00;95881.22;5087368;28;20024;-78
2023/11/04 04:39:24;;;;;;;13.85;1.20;;;;;;;14.60;100.00;95880.53;5090648;28;20044;-78
2023/11/04 04:41:50;;;;;;;2.75;0.77;;;;;;;14.55;100.00;95893.63;5091930;28;20067;-78
2023/11/04 04:44:16;;;;;;;0.10;0.10;;;;;;;14.55;100.00;95871.28;5071839;28;20031;-79
2023/11/04 04:46:42;;;;;;;2.25;1.08;;;;;;;14.59;100.00;95880.69;5061929;28;20048;-78
2023/11/04 04:49:08;;;;;;;0.00;0.00;;;;;;;14.62;100.00;95889.28;5054464;28;20016;-78
2023/11/04 04:51:34;;;;;;;0.22;0.22;;;;;;;14.65;100.00;95898.88;5080836;28;20021;-78
2023/11/04 04:54:00;;;;;;;0.30;0.30;;;;;;;14.71;100.00;95890.16;5059783;28;20117;-78
2023/11/04 04:56:29;;;;;;;0.10;0.10;;;;;;;14.76;100.00;95873.56;5055016;28;20069;-81
2023/11/04 04:58:55;;;;;;;0.38;0.38;;;;;;;14.69;100.00;95883.25;5073373;28;20514;-78
2023/11/04 05:01:22;;;;;;;0.80;0.52;;;;;;;14.64;100.00;95889.97;5091167;28;20056;-80
2023/11/04 05:03:48;;;;;;;0.13;0.13;;;;;;;14.67;100.00;95904.13;5084542;28;20032;-80
2023/11/04 05:06:14;;;;;;;0.68;0.50;;;;;;;14.61;100.00;95919.88;5070461;28;20108;-80
2023/11/04 05:08:40;;;;;;;0.45;0.20;;;;;;;14.50;100.00;95932.78;5070407;28;20052;-80
2023/11/04 05:11:08;;;;;;;1.13;0.57;;;;;;;14.45;100.00;95949.41;5078656;28;20097;-79
2023/11/04 05:13:35;;;;;;;0.50;0.40;;;;;;;14.40;100.00;95975.91;5090398;28;20024;-79
2023/11/04 05:16:00;;;;;;;0.98;0.47;;;;;;;14.41;100.00;96012.59;5090084;28;20120;-80
2023/11/04 05:18:26;;;;;;;5.53;0.90;;;;;;;14.37;100.00;96070.38;5072189;28;20408;-79
2023/11/04 05:20:52;;;;;;;0.60;0.47;;;;;;;14.31;100.00;96097.84;5071094;28;20040;-78
2023/11/04 05:23:18;;;;;;;0.08;0.08;;;;;;;14.29;100.00;96070.28;5070930;28;20031;-79
2023/11/04 05:25:45;;;;;;;0.45;0.45;;;;;;;14.03;100.00;96077.41;5070807;28;20056;-79
2023/11/04 05:28:10;;;;;;;0.55;0.35;;;;;;;13.91;100.00;96098.28;5052788;28;20137;-78
2023/11/04 05:30:36;;;;;;;0.38;0.20;;;;;;;13.82;100.00;96074.16;5085989;28;20016;-79
2023/11/04 05:33:02;;;;;;;0.22;0.22;;;;;;;13.80;100.00;96050.13;5091284;28;20111;-78
2023/11/04 05:35:28;;;;;;;0.38;0.10;;;;;;;13.77;100.00;96030.75;5090021;28;20028;-79
2023/11/04 05:37:53;;;;;;;1.13;0.32;;;;;;;13.81;100.00;96048.28;5089813;28;20024;-77
2023/11/04 05:40:19;;;;;;;0.88;0.77;;;;;;;13.76;100.00;96066.69;5072803;28;20107;-78
2023/11/04 05:42:45;;;;;;;0.20;0.20;;;;;;;13.64;100.00;96057.16;5090904;28;20023;-79
2023/11/04 05:45:14;;;;;;;1.02;0.75;;;;;;;13.64;100.00;96054.47;5072814;28;20028;-79
2023/11/04 05:47:41;;;;;;;0.35;0.20;;;;;;;13.68;100.00;96074.66;5061295;28;20439;-77
2023/11/04 05:50:07;;;;;;;0.10;0.10;;;;;;;13.71;100.00;96087.81;5070914;28;20029;-78
2023/11/04 05:52:32;;;;;;;0.10;0.10;;;;;;;13.71;100.00;96091.34;5091033;28;20439;-79
2023/11/04 05:54:58;;;;;;;1.58;1.02;;;;;;;13.68;100.00;96102.38;5091104;28;20408;-79
2023/11/04 05:57:24;;;;;;;0.10;0.10;;;;;;;13.67;100.00;96106.06;5071823;28;20032;-80
2023/11/04 05:59:49;;;;;;;4.38;0.82;;;;;;;13.65;100.00;96107.22;5052531;28;20089;-79
2023/11/04 06:02:15;;;;;;;0.28;0.20;;;;;;;13.56;100.00;96099.06;5075927;28;20032;-80
2023/11/04 06:04:40;;;;;;;0.40;0.20;;;;;;;13.54;100.00;96092.97;5069312;28;20032;-80
2023/11/04 06:07:06;;;;;;;0.10;0.10;;;;;;;13.51;100.00;96112.06;5069124;28;20115;-79
2023/11/04 06:09:32;;;;;;;3.42;0.65;;;;;;;13.46;100.00;96087.50;5087644;28;20024;-80
2023/11/04 06:12:00;;;;;;;0.45;0.43;;;;;;;13.50;100.00;96090.75;5090505;28;20027;-81
2023/11/04 06:14:27;;;;;;;2.75;0.50;;;;;;;13.51;100.00;96090.56;5090087;28;20455;-79
2023/11/04 06:16:52;;;;;;;0.98;0.90;;;;;;;13.44;100.00;96094.84;5075236;28;20124;-80
2023/11/04 06:19:18;;;;;;;1.23;0.88;;;;;;;13.42;100.00;96077.19;5070016;28;20128;-79
2023/11/04 06:21:48;;;;;;;0.20;0.20;;;;;;;13.41;100.00;96062.09;5075703;28;20045;-80
2023/11/04 06:24:13;;;;;;;0.28;0.28;;;;;;;13.37;100.00;96034.69;5070229;28;20025;-80
2023/11/04 06:26:39;;;;;;;0.05;0.05;;;;;;;13.36;100.00;96038.34;5069005;28;20028;-79
2023/11/04 06:29:05;;;;;;;21.55;7.97;;;;;;;13.45;100.00;96045.50;5078872;28;20020;-79
2023/11/04 06:31:31;;;;;;;2.15;1.60;;;;;;;13.40;100.00;96033.53;5068973;28;20025;-80
2023/11/04 06:33:57;;;;;;;1.75;1.15;;;;;;;13.44;100.00;96014.25;5070142;28;20040;-79
2023/11/04 06:36:22;;;;;;;0.40;0.32;;;;;;;13.47;100.00;96002.41;5068574;28;20086;-80
2023/11/04 06:38:48;;;;;;;2.97;0.70;;;;;;;13.49;100.00;95985.13;5069015;28;20052;-79
2023/11/04 06:41:16;;;;;;;0.70;0.30;;;;;;;13.47;100.00;95968.31;5068770;28;20059;-80
2023/11/04 06:43:45;;;;;;;0.45;0.45;;;;;;;13.51;100.00;95967.00;5069250;28;20028;-79
2023/11/04 06:46:11;;;;;;;0.03;0.03;;;;;;;13.46;100.00;95968.47;5084962;28;20349;-80
2023/11/04 06:48:36;;;;;;;0.85;0.75;;;;;;;13.44;100.00;95963.22;5072070;28;20039;-80
2023/11/04 06:51:02;;;;;;;0.38;0.28;;;;;;;13.55;100.00;95965.72;5089081;28;20107;-79
2023/11/04 06:53:28;;;;;;;0.20;0.20;;;;;;;13.66;100.00;95955.75;5088379;28;20023;-79
2023/11/04 06:55:56;;;;;;;0.43;0.28;;;;;;;13.73;100.00;95963.03;5077062;28;20122;-79
2023/11/04 06:58:22;;;;;;;2.17;1.20;;;;;;;13.73;100.00;95975.63;5052221;28;20036;-79
2023/11/04 07:00:48;;;;;;;0.10;0.10;;;;;;;13.81;100.00;95979.22;5051759;28;20086;-79
2023/11/04 07:03:14;;;;;;;0.25;0.15;;;;;;;13.88;100.00;95985.69;5070163;28;20036;-78
2023/11/04 07:05:40;;;;;;;1.75;0.47;;;;;;;13.98;100.00;95989.16;5068278;28;20477;-80
2023/11/04 07:08:06;;;;;;;0.47;0.47;;;;;;;13.93;100.00;95999.53;5069943;28;20024;-80
2023/11/04 07:10:37;;;;;;;0.68;0.68;;;;;;;13.90;100.00;96009.75;5051876;28;20484;-81
2023/11/04 07:13:03;;;;;;;0.70;0.38;;;;;;;13.94;100.00;96011.09;5070455;28;20048;-79
2023/11/04 07:15:28;;;;;;;0.00;0.00;;;;;;;13.96;100.00;96006.44;5086288;28;20028;-79
2023/11/04 07:17:55;;;;;;;0.93;0.68;;;;;;;14.02;100.00;95992.38;5072371;28;20043;-79
2023/11/04 07:20:21;;;;;;;3.50;2.47;;;;;;;14.00;100.00;95983.59;5071826;28;20535;-79
2023/11/04 07:22:47;;;;;;;0.73;0.68;;;;;;;14.05;100.00;95987.53;5073613;28;20044;-79
2023/11/04 07:25:13;;;;;;;46.13;3.28;;;;;;;14.03;100.00;95983.28;5092818;28;20020;-80
2023/11/04 07:27:39;;;;;;;0.35;0.35;;;;;;;13.98;100.00;95973.03;5075997;28;20030;-78
2023/11/04 07:30:05;;;;;;;0.20;0.20;;;;;;;14.01;100.00;95963.81;5076019;28;20024;-80
2023/11/04 07:32:30;;;;;;;0.75;0.70;;;;;;;13.89;100.00;95959.66;5092642;28;20380;-80
2023/11/04 07:34:56;;;;;;;0.60;0.47;;;;;;;13.86;100.00;95951.91;5076275;28;20032;-78
2023/11/04 07:37:21;;;;;;;0.82;0.68;;;;;;;13.81;100.00;95935.41;5092265;28;20024;-79
2023/11/04 07:39:47;;;;;;;1.38;0.57;;;;;;;13.85;100.00;95936.78;5083510;28;20035;-78
2023/11/04 07:42:12;;;;;;;2.30;0.77;;;;;;;13.89;100.00;95943.53;5093558;28;20026;-79
2023/11/04 07:44:39;;;;;;;0.17;0.17;;;;;;;13.98;100.00;95972.19;5067325;28;20021;-79
2023/11/04 07:47:05;;;;;;;1.13;0.55;;;;;;;13.95;100.00;96012.81;5091884;28;20484;-79
2023/11/04 07:49:30;;;;;;;1.90;1.75;;;;;;;13.95;100.00;96037.84;5091832;28;20091;-79
2023/11/04 07:51:56;;;;;;;1.60;1.23;;;;;;;13.96;100.00;96049.44;5074490;28;20051;-78
2023/11/04 07:54:21;;;;;;;3.38;1.20;;;;;;;13.96;100.00;96042.25;5092104;28;20111;-78
2023/11/04 07:56:47;;;;;;;2.90;1.55;;;;;;;13.98;100.00;96040.22;5058051;28;20413;-76
2023/11/04 07:59:13;;;;;;;1.30;1.23;;;;;;;14.08;100.00;96081.34;5092806;28;20447;-78
2023/11/04 08:01:38;;;;;;;8.85;4.32;;;;;;;14.04;100.00;96098.78;5091568;28;20540;-79
2023/11/04 08:04:04;;;;;;;1.95;1.35;;;;;;;14.04;100.00;96095.22;5092329;28;20039;-78
2023/11/04 08:06:30;;;;;;;1.17;1.08;;;;;;;14.03;100.00;96133.84;5076713;28;20060;-78
2023/11/04 08:08:56;;;;;;;1.80;1.65;;;;;;;14.00;100.00;96118.88;5089158;28;20066;-78
2023/11/04 08:11:22;;;;;;;3.65;1.67;;;;;;;13.97;100.00;96108.41;5092466;28;20027;-78
2023/11/04 08:13:48;;;;;;;0.63;0.63;;;;;;;13.95;100.00;96090.75;5074586;28;20027;-77
2023/11/04 08:16:14;;;;;;;1.88;1.13;;;;;;;13.99;100.00;96090.31;5092720;28;20511;-77
2023/11/04 08:18:40;;;;;;;1.20;1.15;;;;;;;14.01;100.00;96092.84;5092396;28;20062;-79
2023/11/04 08:21:07;;;;;;;4.55;0.82;;;;;;;14.07;100.00;96105.69;5091136;28;20047;-78
2023/11/04 08:23:33;;;;;;;2.25;0.95;;;;;;;14.02;100.00;96111.53;5074346;28;20164;-78
2023/11/04 08:26:10;;;;;;;0.88;0.77;;;;;;;14.01;100.00;96115.19;5090622;28;20529;-80
2023/11/04 08:28:35;;;;;;;1.13;0.77;;;;;;;13.99;100.00;96122.59;5090992;28;20028;-78
2023/11/04 08:31:01;;;;;;;0.95;0.77;;;;;;;13.92;100.00;96126.84;5091678;28;20050;-77
2023/11/04 08:33:26;;;;;;;0.52;0.52;;;;;;;13.86;100.00;96123.91;5090836;28;20115;-80
2023/11/04 08:35:52;;;;;;;1.00;0.90;;;;;;;13.90;100.00;96128.00;5092260;28;20038;-79
2023/11/04 08:38:18;;;;;;;1.40;1.17;;;;;;;13.89;100.00;96134.38;5092134;28;20452;-78
2023/11/04 08:40:44;;;;;;;3.53;2.20;;;;;;;13.94;100.00;96141.00;5066879;28;20029;-78
2023/11/04 08:43:11;;;;;;;1.38;1.08;;;;;;;13.94;100.00;96140.13;5081314;28;20027;-77
2023/11/04 08:45:36;;;;;;;3.40;2.45;;;;;;;13.99;100.00;96145.94;5091650;28;20031;-76
2023/11/04 08:48:02;;;;;;;2.83;1.38;;;;;;;13.92;100.00;96148.38;5072300;28;20487;-77
2023/11/04 08:50:28;;;;;;;2.03;1.83;;;;;;;13.99;100.00;96159.38;5070295;28;20389;-77
2023/11/04 08:52:54;;;;;;;2.22;1.13;;;;;;;13.98;100.00;96146.91;5087000;28;20036;-78
2023/11/04 08:55:20;;;;;;;2.90;1.75;;;;;;;13.97;100.00;96118.31;5082496;28;20527;-78
2023/11/04 08:57:45;;;;;;;0.80;0.80;;;;;;;13.97;100.00;96043.06;5075405;28;20111;-77
2023/11/04 09:00:12;;;;;;;0.90;0.82;;;;;;;13.77;100.00;95983.25;5088423;28;20034;-76
2023/11/04 09:02:37;;;;;;;2.67;2.03;;;;;;;13.77;100.00;95934.88;5070278;28;20565;-77
2023/11/04 09:05:03;;;;;;;1.63;0.95;;;;;;;13.63;100.00;95894.28;5078413;28;20040;-76
2023/11/04 09:07:29;;;;;;;0.90;0.70;;;;;;;13.62;100.00;95908.69;5071503;28;20089;-77
2023/11/04 09:09:55;;;;;;;0.65;0.55;;;;;;;13.72;100.00;95912.16;5061631;28;20028;-77
2023/11/04 09:12:21;;;;;;;0.40;0.40;;;;;;;13.77;100.00;95888.34;5062113;28;20450;-78
2023/11/04 09:14:47;;;;;;;2.15;1.58;;;;;;;13.73;100.00;95860.94;5085263;28;20034;-78
2023/11/04 09:17:12;;;;;;;1.70;0.88;;;;;;;13.76;100.00;95859.78;5081738;28;20521;-77
2023/11/04 09:19:38;;;;;;;2.33;0.88;;;;;;;13.76;100.00;95851.72;5084834;28;20090;-77
2023/11/04 09:22:04;;;;;;;1.00;0.68;;;;;;;13.79;100.00;95840.66;5079740;28;20119;-77
2023/11/04 09:24:30;;;;;;;0.57;0.57;;;;;;;13.83;100.00;95834.81;5079957;28;20024;-78
2023/11/04 09:26:56;;;;;;;3.28;0.93;;;;;;;13.87;100.00;95846.09;5070207;28;20458;-78
2023/11/04 09:29:22;;;;;;;0.60;0.60;;;;;;;13.82;100.00;95856.47;5069650;28;20090;-78
2023/11/04 09:31:47;;;;;;;0.45;0.30;;;;;;;13.75;100.00;95845.47;5079882;28;20025;-78
2023/11/04 09:34:13;;;;;;;0.22;0.22;;;;;;;13.82;100.00;95851.09;5087999;28;20033;-77
2023/11/04 09:36:40;;;;;;;1.98;1.75;;;;;;;13.91;100.00;95855.50;5076875;28;20024;-77
2023/11/04 09:39:07;;;;;;;27.00;15.40;;;;;;;13.89;100.00;95865.59;5086546;28;20036;-76
2023/11/04 09:41:32;;;;;;;3.30;2.45;;;;;;;13.85;100.00;95856.16;5089762;28;20102;-79
2023/11/04 09:43:58;;;;;;;3.20;1.70;;;;;;;13.85;100.00;95840.03;5091401;28;20468;-78
2023/11/04 09:46:23;;;;;;;1.55;1.10;;;;;;;13.68;100.00;95808.66;5080789;28;20539;-79
2023/11/04 09:48:49;;;;;;;1.63;1.38;;;;;;;13.62;100.00;95775.22;5067006;28;20033;-77
2023/11/04 09:51:21;;;;;;;16.17;2.35;;;;;;;13.76;100.00;95761.19;5070573;28;20392;-77
2023/11/04 09:53:57;;;;;;;0.25;0.25;;;;;;;13.91;100.00;95777.56;5058248;28;20028;-78
2023/11/04 09:56:23;;;;;;;1.20;0.88;;;;;;;13.93;100.00;95791.72;5089318;28;20036;-80
2023/11/04 09:58:51;;;;;;;0.65;0.65;;;;;;;14.02;100.00;95801.50;5089487;28;20126;-77
2023/11/04 10:01:20;;;;;;;0.35;0.32;;;;;;;14.04;100.00;95791.44;5072734;28;20035;-78
2023/11/04 10:03:49;;;;;;;0.68;0.68;;;;;;;14.11;100.00;95800.56;5076529;28;20062;-78
2023/11/04 10:06:16;;;;;;;0.10;0.10;;;;;;;14.10;100.00;95812.31;5071090;28;20036;-77
2023/11/04 10:08:46;;;;;;;0.68;0.15;;;;;;;13.91;100.00;95812.50;5089571;28;20039;-79
2023/11/04 10:11:12;;;;;;;0.38;0.10;;;;;;;13.78;100.00;95821.00;5072520;28;20511;-78
2023/11/04 10:13:38;;;;;;;0.05;0.05;;;;;;;13.78;100.00;95807.56;5070545;28;20097;-79
2023/11/04 10:16:04;;;;;;;1.25;0.63;;;;;;;13.90;100.00;95817.06;5070565;28;20098;-77
2023/11/04 10:18:32;;;;;;;1.45;1.08;;;;;;;13.87;100.00;95805.78;5080926;28;20395;-77
2023/11/04 10:20:59;;;;;;;1.17;0.88;;;;;;;13.85;100.00;95792.50;5089521;28;20368;-77
2023/11/04 10:23:24;;;;;;;2.25;0.50;;;;;;;13.89;100.00;95784.97;5089181;28;20506;-76
2023/11/04 10:25:51;;;;;;;2.55;1.52;;;;;;;13.99;100.00;95775.81;5076254;28;20024;-77
2023/11/04 10:28:18;;;;;;;0.60;0.60;;;;;;;13.99;100.00;95767.75;5069146;28;20032;-77
2023/11/04 10:30:44;;;;;;;0.30;0.30;;;;;;;14.10;100.00;95790.78;5073069;28;20020;-79
2023/11/04 10:33:13;;;;;;;1.40;1.02;;;;;;;14.20;100.00;95817.56;5089361;28;20411;-78
2023/11/04 10:35:41;;;;;;;2.83;0.98;;;;;;;14.23;100.00;95819.94;5089016;28;20084;-77
2023/11/04 10:38:09;;;;;;;2.05;1.27;;;;;;;14.40;100.00;95811.81;5089156;28;20085;-76
2023/11/04 10:40:35;;;;;;;1.10;0.70;;;;;;;14.73;100.00;95817.34;5078229;28;20044;-77
2023/11/04 10:43:09;;;;;;;3.28;2.38;;;;;;;14.82;100.00;95789.47;5069087;28;20032;-77
2023/11/04 10:45:55;;;;;;;9.00;2.45;;;;;;;15.07;100.00;95775.06;5068833;28;20028;-77
2023/11/04 10:48:44;;;;;;;1.08;1.00;;;;;;;15.44;100.00;95753.84;5077458;28;20559;-78
2023/11/04 10:51:18;;;;;;;5.20;2.95;;;;;;;15.70;100.00;95735.66;5089007;28;20414;-77
2023/11/04 10:53:50;;;;;;;3.72;1.85;;;;;;;15.55;100.00;95721.22;5068676;28;20349;-79
2023/11/04 10:56:20;;;;;;;;;;;;;;;15.31;100.00;95717.66;5085403;28;20024;-78
2023/11/04 10:59:07;;;;;;;0.93;0.93;;;;;;;15.31;100.00;95718.50;5080951;28;20477;-78
2023/11/04 11:01:34;;;;;;;1.17;0.90;;;;;;;15.23;100.00;95731.94;5090381;28;20020;-77
2023/11/04 11:04:01;;;;;;;1.65;0.45;;;;;;;15.10;100.00;95751.28;5072598;28;20024;-78
2023/11/04 11:06:27;;;;;;;1.27;0.60;;;;;;;15.03;100.00;95768.31;5055750;28;20028;-78
2023/11/04 11:08:53;;;;;;;0.63;0.63;;;;;;;14.90;100.00;95784.94;5056080;28;20124;-77
2023/11/04 11:11:24;;;;;;;0.30;0.30;;;;;;;14.69;100.00;95802.53;5072539;28;20496;-77
2023/11/04 11:13:52;;;;;;;2.83;1.20;;;;;;;14.55;100.00;95822.84;5080971;28;20495;-78
2023/11/04 11:16:18;;;;;;;0.38;0.38;;;;;;;14.41;100.00;95853.03;5072588;28;20033;-77
2023/11/04 11:18:43;;;;;;;1.08;0.70;;;;;;;14.30;100.00;95848.75;5073305;28;20085;-77
2023/11/04 11:21:10;;;;;;;0.20;0.20;;;;;;;14.38;100.00;95848.81;5072292;28;20024;-77